createdAt,value
2023-10-09T00:00:36.664Z,8.88
2023-10-09T00:03:08.243Z,5.63
2023-10-09T00:05:47.563Z,4.55
2023-10-09T00:08:22.986Z,4.15
2023-10-09T00:10:55.289Z,4.72
2023-10-09T00:13:32.038Z,5.20
2023-10-09T00:16:15.919Z,4.50
2023-10-09T00:18:47.936Z,4.97
2023-10-09T00:21:21.656Z,5.95
2023-10-09T00:24:00.569Z,3.67
2023-10-09T00:26:32.204Z,3.85
2023-10-09T00:29:06.740Z,4.72
2023-10-09T00:31:38.423Z,5.63
2023-10-09T00:34:08.034Z,5.32
2023-10-09T00:36:51.742Z,5.28
2023-10-09T00:39:46.265Z,4.70
2023-10-09T00:42:16.074Z,7.38
2023-10-09T00:44:49.713Z,4.75
2023-10-09T00:47:27.644Z,4.03
2023-10-09T00:50:02.192Z,4.47
2023-10-09T00:52:38.281Z,4.75
2023-10-09T00:55:15.752Z,5.82
2023-10-09T00:57:57.980Z,4.85
2023-10-09T01:00:34.957Z,6.40
2023-10-09T01:03:21.193Z,6.25
2023-10-09T01:05:59.445Z,2.75
2023-10-09T01:08:32.081Z,5.65
2023-10-09T01:11:10.849Z,5.88
2023-10-09T01:13:54.243Z,2.88
2023-10-09T01:16:25.517Z,4.28
2023-10-09T01:18:58.741Z,4.85
2023-10-09T01:21:28.626Z,5.85
2023-10-09T01:24:06.266Z,4.10
2023-10-09T01:26:45.970Z,7.10
2023-10-09T01:29:20.087Z,3.88
2023-10-09T01:31:56.246Z,5.65
2023-10-09T01:34:40.058Z,6.70
2023-10-09T01:37:13.409Z,5.32
2023-10-09T01:39:51.825Z,5.93
2023-10-09T01:42:29.307Z,5.68
2023-10-09T01:44:59.958Z,5.05
2023-10-09T01:47:33.309Z,10.35
2023-10-09T01:50:06.185Z,10.23
2023-10-09T01:55:10.732Z,5.20
2023-10-09T01:57:40.795Z,5.63
2023-10-09T02:00:10.696Z,5.80
2023-10-09T02:02:46.390Z,6.50
2023-10-09T02:05:26.637Z,5.53
2023-10-09T02:07:58.129Z,8.98
2023-10-09T02:10:33.019Z,6.82
2023-10-09T02:13:08.366Z,8.45
2023-10-09T02:15:53.001Z,3.95
2023-10-09T02:18:28.796Z,6.47
2023-10-09T02:21:16.449Z,8.65
2023-10-09T02:23:51.558Z,6.15
2023-10-09T02:26:27.009Z,6.55
2023-10-09T02:29:01.196Z,6.40
2023-10-09T02:31:37.580Z,5.40
2023-10-09T02:34:13.893Z,5.95
2023-10-09T02:36:50.906Z,5.18
2023-10-09T02:39:25.132Z,7.28
2023-10-09T02:41:59.815Z,12.40
2023-10-09T02:44:30.996Z,7.30
2023-10-09T02:47:00.038Z,6.40
2023-10-09T02:49:29.701Z,7.18
2023-10-09T02:51:58.571Z,8.63
2023-10-09T02:54:37.085Z,6.18
2023-10-09T02:57:16.905Z,8.48
2023-10-09T02:59:46.499Z,4.95
2023-10-09T03:02:14.927Z,8.63
2023-10-09T03:04:44.602Z,7.13
2023-10-09T03:07:15.363Z,5.82
2023-10-09T03:09:44.006Z,5.40
2023-10-09T03:12:14.475Z,5.18
2023-10-09T03:14:43.952Z,5.40
2023-10-09T03:17:13.934Z,5.95
2023-10-09T03:19:45.029Z,5.40
2023-10-09T03:22:14.173Z,5.57
2023-10-09T03:24:48.821Z,7.07
2023-10-09T03:27:23.592Z,5.63
2023-10-09T03:29:54.987Z,4.15
2023-10-09T03:32:23.885Z,7.13
2023-10-09T03:34:52.732Z,4.60
2023-10-09T03:37:35.130Z,4.72
2023-10-09T03:40:04.743Z,4.57
2023-10-09T03:42:37.709Z,6.45
2023-10-09T03:45:14.001Z,4.72
2023-10-09T03:47:44.733Z,7.15
2023-10-09T03:50:25.197Z,7.80
2023-10-09T03:52:56.308Z,5.72
2023-10-09T03:55:29.045Z,4.03
2023-10-09T03:58:00.984Z,6.78
2023-10-09T04:00:31.383Z,7.43
2023-10-09T04:03:01.032Z,5.40
2023-10-09T04:05:30.113Z,7.43
2023-10-09T04:08:02.655Z,5.90
2023-10-09T04:10:54.198Z,6.18
2023-10-09T04:13:34.000Z,6.07
2023-10-09T04:16:10.905Z,4.55
2023-10-09T04:18:41.273Z,5.25
2023-10-09T04:21:20.403Z,4.32
2023-10-09T04:24:23.817Z,5.82
2023-10-09T04:26:57.379Z,5.78
2023-10-09T04:29:29.704Z,3.92
2023-10-09T04:32:01.882Z,10.00
2023-10-09T04:34:36.077Z,6.80
2023-10-09T04:37:20.968Z,6.35
2023-10-09T04:39:51.013Z,4.78
2023-10-09T04:42:37.573Z,6.28
2023-10-09T04:45:23.186Z,4.95
2023-10-09T04:47:59.803Z,7.10
2023-10-09T04:51:08.073Z,7.50
2023-10-09T04:53:45.279Z,7.03
2023-10-09T04:56:18.165Z,4.72
2023-10-09T04:58:49.052Z,7.38
2023-10-09T05:01:37.809Z,6.40
2023-10-09T05:04:28.335Z,4.47
2023-10-09T05:06:57.478Z,7.97
2023-10-09T05:09:25.700Z,6.68
2023-10-09T05:12:11.095Z,7.88
2023-10-09T05:14:46.998Z,6.10
2023-10-09T05:17:28.463Z,7.35
2023-10-09T05:20:02.255Z,7.65
2023-10-09T05:22:40.093Z,9.15
2023-10-09T05:25:28.784Z,4.20
2023-10-09T05:28:18.096Z,4.97
2023-10-09T05:30:56.697Z,6.47
2023-10-09T05:33:38.051Z,8.10
2023-10-09T05:36:33.274Z,7.25
2023-10-09T05:39:19.760Z,7.57
2023-10-09T05:42:01.273Z,8.23
2023-10-09T05:44:48.045Z,8.18
2023-10-09T05:47:36.946Z,5.70
2023-10-09T05:50:38.121Z,9.13
2023-10-09T05:53:18.719Z,7.40
2023-10-09T05:56:10.112Z,7.70
2023-10-09T05:59:04.663Z,7.05
2023-10-09T06:01:51.099Z,11.45
2023-10-09T06:04:35.270Z,8.85
2023-10-09T06:07:15.281Z,7.15
2023-10-09T06:09:56.799Z,11.05
2023-10-09T06:12:54.027Z,8.93
2023-10-09T06:15:54.879Z,8.23
2023-10-09T06:18:34.798Z,7.70
2023-10-09T06:21:20.764Z,6.50
2023-10-09T06:24:16.706Z,8.73
2023-10-09T06:27:09.128Z,7.32
2023-10-09T06:29:38.682Z,7.15
2023-10-09T06:32:40.673Z,7.45
2023-10-09T06:35:23.272Z,9.25
2023-10-09T06:38:13.246Z,6.60
2023-10-09T06:41:18.811Z,8.18
2023-10-09T06:43:54.605Z,4.85
2023-10-09T06:46:45.225Z,9.90
2023-10-09T06:49:39.689Z,9.65
2023-10-09T06:52:28.854Z,9.68
2023-10-09T06:55:05.010Z,8.02
2023-10-09T06:57:51.680Z,12.75
2023-10-09T07:00:38.292Z,10.05
2023-10-09T07:03:12.920Z,9.65
2023-10-09T07:06:01.925Z,8.55
2023-10-09T07:08:39.527Z,7.85
2023-10-09T07:11:39.974Z,10.00
2023-10-09T07:14:34.161Z,11.85
2023-10-09T07:17:05.635Z,12.32
2023-10-09T07:19:57.719Z,11.35
2023-10-09T07:22:30.939Z,13.00
2023-10-09T07:25:17.085Z,10.27
2023-10-09T07:27:48.124Z,9.90
2023-10-09T07:30:33.782Z,9.02
2023-10-09T07:33:17.992Z,10.27
2023-10-09T07:36:00.713Z,15.43
2023-10-09T07:41:21.896Z,13.50
2023-10-09T07:43:52.203Z,13.73
2023-10-09T07:46:34.299Z,10.10
2023-10-09T07:49:10.934Z,13.98
2023-10-09T07:51:45.435Z,14.85
2023-10-09T07:54:16.318Z,13.30
2023-10-09T07:56:51.221Z,9.18
2023-10-09T07:59:21.106Z,12.43
2023-10-09T08:01:54.700Z,10.43
2023-10-09T08:04:39.328Z,10.88
2023-10-09T08:08:06.158Z,12.55
2023-10-09T08:10:14.251Z,12.23
2023-10-09T08:12:57.208Z,10.90
2023-10-09T08:15:35.941Z,9.07
2023-10-09T08:18:11.628Z,12.05
2023-10-09T08:21:12.589Z,12.02
2023-10-09T08:23:54.490Z,9.20
2023-10-09T08:26:32.796Z,9.27
2023-10-09T08:29:15.672Z,15.15
2023-10-09T08:31:48.170Z,42.22
2023-10-09T08:36:58.346Z,17.35
2023-10-09T08:39:34.652Z,8.90
2023-10-09T08:42:06.645Z,12.95
2023-10-09T08:44:36.979Z,16.55
2023-10-09T08:47:07.078Z,15.73
2023-10-09T08:49:38.574Z,13.77
2023-10-09T08:52:07.957Z,10.43
2023-10-09T08:54:36.681Z,12.25
2023-10-09T08:57:06.151Z,11.77
2023-10-09T08:59:47.612Z,10.85
2023-10-09T09:04:51.819Z,10.63
2023-10-09T09:07:30.256Z,10.63
2023-10-09T09:10:05.902Z,15.63
2023-10-09T09:12:39.135Z,11.95
2023-10-09T09:15:22.229Z,9.77
2023-10-09T09:17:55.235Z,12.23
2023-10-09T09:20:29.104Z,8.65
2023-10-09T09:22:57.904Z,11.18
2023-10-09T09:25:44.632Z,9.90
2023-10-09T09:28:20.953Z,10.00
2023-10-09T09:30:52.805Z,12.77
2023-10-09T09:33:31.848Z,8.65
2023-10-09T09:36:07.532Z,9.50
2023-10-09T09:38:49.298Z,11.00
2023-10-09T09:41:25.655Z,11.40
2023-10-09T09:43:58.584Z,12.75
2023-10-09T09:46:35.095Z,10.82
2023-10-09T09:49:07.157Z,10.48
2023-10-09T09:51:37.224Z,13.93
2023-10-09T09:54:14.213Z,11.88
2023-10-09T09:56:50.034Z,10.65
2023-10-09T09:59:26.826Z,12.90
2023-10-09T10:01:59.465Z,9.10
2023-10-09T10:04:36.510Z,8.57
2023-10-09T10:07:10.670Z,10.82
2023-10-09T10:09:45.773Z,9.00
2023-10-09T10:12:16.163Z,10.48
2023-10-09T10:14:58.205Z,8.18
2023-10-09T10:20:26.726Z,9.57
2023-10-09T10:23:22.232Z,8.02
2023-10-09T10:26:01.745Z,6.93
2023-10-09T10:28:40.273Z,8.55
2023-10-09T10:31:10.964Z,7.40
2023-10-09T10:34:12.443Z,6.63
2023-10-09T10:36:53.724Z,6.90
2023-10-09T10:39:40.949Z,6.95
2023-10-09T10:42:15.822Z,5.25
2023-10-09T10:44:46.334Z,6.32
2023-10-09T10:47:26.098Z,6.50
2023-10-09T10:50:00.820Z,6.57
2023-10-09T10:52:44.313Z,7.57
2023-10-09T10:55:36.334Z,7.60
2023-10-09T10:58:11.797Z,7.55
2023-10-09T11:00:57.967Z,4.95
2023-10-09T11:03:37.273Z,6.15
2023-10-09T11:06:16.985Z,8.85
2023-10-09T11:08:56.079Z,7.22
2023-10-09T11:11:34.624Z,4.95
2023-10-09T11:14:17.427Z,6.95
2023-10-09T11:16:48.931Z,7.20
2023-10-09T11:19:30.412Z,8.35
2023-10-09T11:22:17.926Z,5.70
2023-10-09T11:25:01.935Z,6.47
2023-10-09T11:27:34.270Z,6.05
2023-10-09T11:30:27.860Z,8.43
2023-10-09T11:33:06.288Z,6.47
2023-10-09T11:35:37.211Z,8.18
2023-10-09T11:38:23.719Z,5.20
2023-10-09T11:41:07.057Z,6.20
2023-10-09T11:43:54.633Z,14.80
2023-10-09T11:46:50.879Z,55.90
2023-10-09T11:49:45.478Z,19.85
2023-10-09T11:52:31.170Z,12.35
2023-10-09T11:55:02.298Z,9.73
2023-10-09T11:57:35.026Z,11.93
2023-10-09T12:00:26.161Z,6.28
2023-10-09T12:02:54.804Z,5.72
2023-10-09T12:05:29.407Z,6.55
2023-10-09T12:08:03.098Z,6.05
2023-10-09T12:10:31.534Z,5.03
2023-10-09T12:13:05.959Z,6.22
2023-10-09T12:15:39.442Z,4.97
2023-10-09T12:18:17.320Z,8.30
2023-10-09T12:20:51.985Z,5.82
2023-10-09T12:23:22.543Z,9.18
2023-10-09T12:25:58.189Z,6.43
2023-10-09T12:28:27.085Z,6.05
2023-10-09T12:31:02.650Z,8.60
2023-10-09T12:33:32.260Z,6.47
2023-10-09T12:36:02.674Z,8.32
2023-10-09T12:38:34.256Z,7.63
2023-10-09T12:41:09.769Z,8.10
2023-10-09T12:43:39.902Z,5.72
2023-10-09T12:46:10.594Z,9.63
2023-10-09T12:48:39.153Z,7.15
2023-10-09T12:51:07.585Z,6.53
2023-10-09T12:53:41.321Z,5.95
2023-10-09T12:56:10.631Z,6.63
2023-10-09T12:58:43.351Z,7.53
2023-10-09T13:01:14.171Z,9.60
2023-10-09T13:03:42.804Z,5.00
2023-10-09T13:06:13.326Z,6.13
2023-10-09T13:08:42.814Z,5.82
2023-10-09T13:11:17.849Z,7.90
2023-10-09T13:13:52.272Z,7.47
2023-10-09T13:16:25.331Z,6.35
2023-10-09T13:18:56.353Z,5.93
2023-10-09T13:21:27.426Z,5.95
2023-10-09T13:23:58.883Z,6.77
2023-10-09T13:26:34.182Z,6.82
2023-10-09T13:29:05.682Z,6.68
2023-10-09T13:31:38.975Z,7.35
2023-10-09T13:34:11.315Z,6.78
2023-10-09T13:36:41.370Z,6.32
2023-10-09T13:39:27.404Z,6.03
2023-10-09T13:42:00.952Z,5.75
2023-10-09T13:44:30.880Z,5.75
2023-10-09T13:47:03.006Z,8.65
2023-10-09T13:49:32.484Z,9.05
2023-10-09T13:52:03.006Z,5.32
2023-10-09T13:54:41.219Z,8.50
2023-10-09T13:57:12.379Z,6.13
2023-10-09T13:59:50.685Z,6.63
2023-10-09T14:02:24.170Z,6.70
2023-10-09T14:04:53.721Z,6.70
2023-10-09T14:07:24.338Z,7.68
2023-10-09T14:10:09.580Z,4.80
2023-10-09T14:12:41.748Z,8.00
2023-10-09T14:15:19.302Z,6.18
2023-10-09T14:17:57.511Z,5.10
2023-10-09T14:20:32.880Z,6.47
2023-10-09T14:23:10.693Z,4.97
2023-10-09T14:25:41.298Z,7.18
2023-10-09T14:28:16.590Z,5.57
2023-10-09T14:30:45.950Z,7.10
2023-10-09T14:33:24.547Z,6.90
2023-10-09T14:35:54.510Z,8.35
2023-10-09T14:41:01.064Z,5.75
2023-10-09T14:43:35.076Z,6.18
2023-10-09T14:46:11.958Z,7.43
2023-10-09T14:48:42.407Z,7.03
2023-10-09T14:51:14.619Z,7.25
2023-10-09T14:56:17.089Z,5.55
2023-10-09T14:58:51.308Z,6.47
2023-10-09T15:01:21.804Z,7.10
2023-10-09T15:03:56.503Z,6.97
2023-10-09T15:06:28.241Z,8.40
2023-10-09T15:11:31.844Z,5.78
2023-10-09T15:14:00.769Z,8.40
2023-10-09T15:16:31.992Z,7.35
2023-10-09T15:24:03.502Z,8.98
2023-10-09T15:26:34.874Z,9.43
2023-10-09T15:29:08.153Z,9.15
2023-10-09T15:31:36.895Z,7.35
2023-10-09T15:34:09.877Z,7.20
2023-10-09T15:36:38.830Z,8.57
2023-10-09T15:39:12.944Z,8.35
2023-10-09T15:41:41.924Z,7.28
2023-10-09T15:44:10.528Z,9.15
2023-10-09T15:46:41.316Z,11.98
2023-10-09T15:49:12.959Z,6.82
2023-10-09T15:51:42.009Z,9.38
2023-10-09T15:54:14.004Z,11.35
2023-10-09T15:56:47.292Z,9.73
2023-10-09T15:59:20.860Z,9.48
2023-10-09T16:01:50.087Z,7.97
2023-10-09T16:04:22.113Z,8.05
2023-10-09T16:06:53.745Z,9.13
2023-10-09T16:11:52.732Z,7.97
2023-10-09T16:14:21.383Z,12.65
2023-10-09T16:16:57.602Z,8.45
2023-10-09T16:19:29.553Z,7.43
2023-10-09T16:21:59.243Z,11.65
2023-10-09T16:24:35.398Z,9.85
2023-10-09T16:27:05.154Z,13.63
2023-10-09T16:29:33.956Z,12.60
2023-10-09T16:32:02.557Z,11.60
2023-10-09T16:34:33.689Z,13.77
2023-10-09T16:37:02.260Z,8.48
2023-10-09T16:39:39.415Z,9.30
2023-10-09T16:42:11.021Z,10.02
2023-10-09T16:47:12.774Z,11.38
2023-10-09T16:49:50.627Z,11.57
2023-10-09T16:52:19.863Z,11.20
2023-10-09T16:54:48.241Z,12.93
2023-10-09T16:57:17.852Z,11.30
2023-10-09T16:59:47.676Z,13.20
2023-10-09T17:02:23.883Z,9.77
2023-10-09T17:05:10.928Z,14.43
2023-10-09T17:07:40.625Z,12.75
2023-10-09T17:10:16.200Z,13.88
2023-10-09T17:12:47.705Z,17.50
2023-10-09T17:15:19.716Z,18.30
2023-10-09T17:20:23.052Z,17.95
2023-10-09T17:22:52.040Z,16.00
2023-10-09T17:25:21.480Z,14.82
2023-10-09T17:27:49.864Z,15.18
2023-10-09T17:30:22.306Z,12.10
2023-10-09T17:32:52.175Z,14.73
2023-10-09T17:35:22.156Z,11.50
2023-10-09T17:37:50.564Z,11.45
2023-10-09T17:40:22.017Z,14.27
2023-10-09T17:42:53.451Z,15.60
2023-10-09T17:45:24.350Z,13.88
2023-10-09T17:47:54.719Z,24.23
2023-10-09T17:50:26.009Z,16.08
2023-10-09T17:52:55.722Z,15.77
2023-10-09T17:55:24.650Z,20.23
2023-10-09T17:57:53.475Z,20.05
2023-10-09T18:00:24.827Z,34.85
2023-10-09T18:02:54.796Z,19.92
2023-10-09T18:05:31.399Z,25.73
2023-10-09T18:08:02.761Z,27.27
2023-10-09T18:10:37.056Z,34.47
2023-10-09T18:13:07.275Z,20.80
2023-10-09T18:15:39.578Z,18.48
2023-10-09T18:18:21.371Z,20.80
2023-10-09T18:21:07.146Z,29.77
2023-10-09T18:23:39.407Z,32.00
2023-10-09T18:26:10.640Z,36.63
2023-10-09T18:31:20.845Z,34.45
2023-10-09T18:34:05.119Z,37.05
2023-10-09T18:36:36.830Z,35.47
2023-10-09T18:39:15.625Z,37.15
2023-10-09T18:41:45.869Z,36.13
2023-10-09T18:44:16.471Z,38.90
2023-10-09T18:46:46.649Z,36.50
2023-10-09T18:49:20.750Z,54.03
2023-10-09T18:51:52.616Z,60.58
2023-10-09T18:54:21.467Z,50.00
2023-10-09T18:56:56.072Z,47.50
2023-10-09T18:59:24.862Z,44.17
2023-10-09T19:01:57.491Z,44.30
2023-10-09T19:04:26.264Z,46.17
2023-10-09T19:06:59.350Z,47.63
2023-10-09T19:09:29.708Z,46.92
2023-10-09T19:12:00.292Z,52.15
2023-10-09T19:14:32.886Z,48.20
2023-10-09T19:17:04.524Z,39.03
2023-10-09T19:19:36.658Z,45.22
2023-10-09T19:22:07.199Z,48.10
2023-10-09T19:24:38.383Z,50.25
2023-10-09T19:27:12.872Z,47.17
2023-10-09T19:29:48.824Z,40.22
2023-10-09T19:32:18.974Z,39.38
2023-10-09T19:34:48.608Z,41.55
2023-10-09T19:37:22.917Z,41.85
2023-10-09T19:39:53.325Z,35.35
2023-10-09T19:42:25.081Z,36.28
2023-10-09T19:44:54.317Z,31.48
2023-10-09T19:47:24.577Z,38.58
2023-10-09T19:49:53.226Z,31.45
2023-10-09T19:52:24.192Z,34.33
2023-10-09T19:54:57.167Z,32.97
2023-10-09T19:57:26.968Z,27.30
2023-10-09T19:59:56.482Z,36.38
2023-10-09T20:02:26.230Z,28.73
2023-10-09T20:04:56.139Z,31.73
2023-10-09T20:07:30.843Z,29.98
2023-10-09T20:10:02.778Z,27.48
2023-10-09T20:12:31.779Z,32.80
2023-10-09T20:15:04.203Z,30.98
2023-10-09T20:17:34.287Z,32.92
2023-10-09T20:20:09.124Z,32.30
2023-10-09T20:22:42.710Z,40.13
2023-10-09T20:25:23.864Z,29.38
2023-10-09T20:27:53.942Z,23.98
2023-10-09T20:30:25.984Z,31.70
2023-10-09T20:32:54.381Z,27.70
2023-10-09T20:35:27.885Z,30.33
2023-10-09T20:38:02.981Z,32.70
2023-10-09T20:40:32.070Z,28.08
2023-10-09T20:43:03.732Z,33.88
2023-10-09T20:45:49.598Z,29.75
2023-10-09T20:48:18.393Z,32.63
2023-10-09T20:50:48.586Z,26.58
2023-10-09T20:53:18.425Z,25.40
2023-10-09T20:55:56.080Z,25.83
2023-10-09T20:58:25.761Z,32.03
2023-10-09T21:00:54.638Z,31.17
2023-10-09T21:03:26.334Z,33.38
2023-10-09T21:08:24.633Z,25.50
2023-10-09T21:10:53.040Z,27.55
2023-10-09T21:13:21.358Z,24.05
2023-10-09T21:15:49.954Z,20.77
2023-10-09T21:18:21.102Z,23.10
2023-10-09T21:20:49.882Z,24.25
2023-10-09T21:23:18.572Z,31.48
2023-10-09T21:25:48.818Z,31.08
2023-10-09T21:28:17.296Z,32.15
2023-10-09T21:30:47.692Z,44.85
2023-10-09T21:33:16.063Z,59.53
2023-10-09T21:35:44.751Z,92.55
2023-10-09T21:38:14.737Z,80.07
2023-10-09T21:40:49.256Z,35.55
2023-10-09T21:43:19.254Z,30.00
2023-10-09T21:45:53.177Z,24.48
2023-10-09T21:48:23.442Z,26.50
2023-10-09T21:50:52.142Z,24.83
2023-10-09T21:53:20.676Z,24.80
2023-10-09T21:55:49.065Z,23.00
2023-10-09T21:58:18.838Z,25.35
2023-10-09T22:00:50.403Z,24.15
2023-10-09T22:03:20.798Z,28.05
2023-10-09T22:05:49.695Z,34.78
2023-10-09T22:08:20.015Z,35.40
2023-10-09T22:10:48.976Z,28.23
2023-10-09T22:13:21.434Z,27.55
2023-10-09T22:15:56.525Z,30.58
2023-10-09T22:18:29.060Z,25.05
2023-10-09T22:20:58.304Z,26.98
2023-10-09T22:23:35.090Z,27.35
2023-10-09T22:26:04.986Z,29.73
2023-10-09T22:28:35.281Z,30.63
2023-10-09T22:31:05.320Z,27.02
2023-10-09T22:33:52.227Z,28.45
2023-10-09T22:36:38.204Z,28.67
2023-10-09T22:41:56.026Z,29.30
2023-10-09T22:44:39.118Z,25.35
2023-10-09T22:47:10.718Z,27.60
2023-10-09T22:49:40.310Z,32.65
2023-10-09T22:52:14.266Z,31.33
2023-10-09T22:54:44.155Z,34.67
2023-10-09T22:57:15.626Z,30.17
2023-10-09T22:59:52.007Z,24.75
2023-10-09T23:02:44.545Z,28.17
2023-10-09T23:05:18.758Z,26.92
2023-10-09T23:08:00.998Z,26.90
2023-10-09T23:13:15.932Z,19.60
2023-10-09T23:15:51.174Z,20.40
2023-10-09T23:18:34.589Z,21.98
2023-10-09T23:21:20.974Z,28.92
2023-10-09T23:24:09.662Z,24.30
2023-10-09T23:26:53.416Z,26.80
2023-10-09T23:29:30.741Z,21.52
2023-10-09T23:32:22.819Z,26.60
2023-10-09T23:34:56.870Z,21.95
2023-10-09T23:37:34.678Z,29.35
2023-10-09T23:40:09.174Z,29.27
2023-10-09T23:42:38.918Z,28.35
2023-10-09T23:45:09.605Z,31.13
2023-10-09T23:47:42.591Z,27.10
2023-10-09T23:50:19.746Z,28.55
2023-10-09T23:52:54.223Z,28.25
2023-10-09T23:55:29.215Z,29.17
2023-10-09T23:58:00.979Z,31.45
